Time;durP1;ratioP1;P1;durP2;ratioP2;P2;SDS_P1;SDS_P2;PMS_P1;PMS_P2;Temp;Humidity;BMP_temperature;BMP_pressure;BME280_temperature;BME280_humidity;BME280_pressure;Samples;Min_cycle;Max_cycle;Signal;HPM_P1;HPM_P2
2024/02/02 00:01:18;;;;;;;0.60;0.60;;;15.90;70.80;;;;;;5016961;28;20052;-83
2024/02/02 00:03:43;;;;;;;0.75;0.55;;;15.90;70.80;;;;;;4987097;28;20041;-82
2024/02/02 00:06:09;;;;;;;0.40;0.40;;;15.90;70.80;;;;;;5012174;28;20060;-83
2024/02/02 00:08:35;;;;;;;0.70;0.55;;;15.90;70.80;;;;;;5022365;28;20176;-84
2024/02/02 00:11:00;;;;;;;0.50;0.50;;;15.90;70.70;;;;;;5021949;28;20045;-84
2024/02/02 00:13:26;;;;;;;0.57;0.55;;;15.90;70.70;;;;;;5024872;28;20100;-82
2024/02/02 00:15:52;;;;;;;0.40;0.40;;;15.90;70.70;;;;;;5022222;28;20160;-82
2024/02/02 00:18:18;;;;;;;0.50;0.50;;;15.90;70.70;;;;;;5020625;28;20617;-82
2024/02/02 00:20:44;;;;;;;0.60;0.60;;;15.90;70.50;;;;;;5019398;28;20033;-82
2024/02/02 00:23:09;;;;;;;0.30;0.30;;;15.90;70.70;;;;;;5022090;28;20034;-82
2024/02/02 00:25:35;;;;;;;0.40;0.40;;;15.90;70.70;;;;;;5023540;28;20075;-81
2024/02/02 00:28:01;;;;;;;0.40;0.40;;;15.90;70.60;;;;;;5021092;28;20428;-81
2024/02/02 00:30:26;;;;;;;0.40;0.40;;;15.90;70.70;;;;;;5021945;28;20076;-81
2024/02/02 00:32:52;;;;;;;0.57;0.55;;;15.90;70.70;;;;;;5022323;28;20030;-81
2024/02/02 00:35:17;;;;;;;0.47;0.47;;;15.90;70.60;;;;;;5006111;28;20034;-81
2024/02/02 00:37:44;;;;;;;0.43;0.43;;;15.90;70.60;;;;;;5021103;28;20677;-82
2024/02/02 00:40:10;;;;;;;0.40;0.40;;;15.90;70.90;;;;;;5008287;28;20044;-83
2024/02/02 00:42:36;;;;;;;0.30;0.30;;;15.90;70.70;;;;;;4998142;28;20072;-82
2024/02/02 00:45:02;;;;;;;0.40;0.40;;;15.80;70.50;;;;;;4999770;28;20057;-82
2024/02/02 00:47:27;;;;;;;0.50;0.50;;;15.90;70.80;;;;;;4998812;28;20041;-82
2024/02/02 00:49:53;;;;;;;0.30;0.30;;;15.90;70.70;;;;;;5021313;28;20062;-82
2024/02/02 00:52:18;;;;;;;1.15;0.52;;;15.90;70.60;;;;;;5021836;28;20145;-82
2024/02/02 00:54:44;;;;;;;0.60;0.60;;;15.90;70.60;;;;;;5005442;28;20042;-82
2024/02/02 00:57:12;;;;;;;0.60;0.60;;;15.90;70.70;;;;;;4983563;28;20699;-82
2024/02/02 00:59:38;;;;;;;1.00;0.40;;;15.80;70.50;;;;;;5021491;28;20530;-82
2024/02/02 01:02:03;;;;;;;0.32;0.32;;;15.80;70.50;;;;;;5013335;28;20049;-83
2024/02/02 01:04:29;;;;;;;0.50;0.50;;;15.80;70.50;;;;;;5015843;28;20038;-82
2024/02/02 01:06:54;;;;;;;0.43;0.43;;;15.80;70.50;;;;;;4986182;28;20053;-82
2024/02/02 01:09:20;;;;;;;0.60;0.60;;;15.80;70.40;;;;;;5016585;28;20115;-82
2024/02/02 01:11:47;;;;;;;0.70;0.70;;;15.80;70.50;;;;;;5019008;28;20057;-82
2024/02/02 01:14:13;;;;;;;0.68;0.60;;;15.80;70.50;;;;;;5019218;28;20417;-83
2024/02/02 01:16:38;;;;;;;2.47;0.63;;;15.80;70.50;;;;;;5023199;28;20053;-82
2024/02/02 01:19:04;;;;;;;0.50;0.50;;;15.80;70.50;;;;;;5021669;28;20120;-82
2024/02/02 01:21:30;;;;;;;0.93;0.50;;;15.80;70.50;;;;;;5020452;28;20554;-82
2024/02/02 01:23:55;;;;;;;0.60;0.60;;;15.80;70.50;;;;;;5021650;28;20045;-80
2024/02/02 01:26:21;;;;;;;0.40;0.40;;;15.80;70.40;;;;;;5003949;28;20496;-80
2024/02/02 01:28:46;;;;;;;0.85;0.40;;;15.80;70.60;;;;;;5021047;28;20056;-81
2024/02/02 01:31:12;;;;;;;0.65;0.40;;;15.80;70.70;;;;;;5024247;28;20037;-82
2024/02/02 01:33:38;;;;;;;0.70;0.60;;;15.80;70.60;;;;;;4998250;28;20077;-82
2024/02/02 01:36:03;;;;;;;0.55;0.55;;;15.80;70.40;;;;;;5015243;28;20049;-81
2024/02/02 01:38:29;;;;;;;0.68;0.68;;;15.80;70.50;;;;;;5025161;28;20187;-80
2024/02/02 01:40:54;;;;;;;0.50;0.50;;;15.80;70.50;;;;;;4989741;28;20594;-80
2024/02/02 01:43:23;;;;;;;0.65;0.55;;;15.80;70.50;;;;;;4999974;28;20056;-80
2024/02/02 01:45:49;;;;;;;0.43;0.43;;;15.80;70.50;;;;;;5006729;28;20044;-80
2024/02/02 01:48:15;;;;;;;0.60;0.60;;;15.80;70.50;;;;;;5024291;28;20041;-80
2024/02/02 01:50:41;;;;;;;0.50;0.50;;;15.80;70.50;;;;;;5038767;28;20049;-80
2024/02/02 01:53:06;;;;;;;0.45;0.43;;;15.80;70.30;;;;;;5021104;28;20120;-80
2024/02/02 01:55:32;;;;;;;0.70;0.70;;;15.80;70.40;;;;;;5027692;28;20052;-80
2024/02/02 01:57:57;;;;;;;0.60;0.60;;;15.80;70.60;;;;;;5008286;28;20041;-80
2024/02/02 02:00:23;;;;;;;1.83;0.60;;;15.80;70.40;;;;;;5005651;28;20257;-80
2024/02/02 02:02:48;;;;;;;0.43;0.43;;;15.80;70.40;;;;;;4992457;28;20045;-80
2024/02/02 02:05:14;;;;;;;0.60;0.60;;;15.70;70.50;;;;;;4991879;28;20415;-80
2024/02/02 02:07:44;;;;;;;0.60;0.60;;;15.80;70.30;;;;;;4993938;28;20045;-80
2024/02/02 02:10:10;;;;;;;0.65;0.65;;;15.70;70.40;;;;;;4992336;28;20034;-80
2024/02/02 02:12:35;;;;;;;0.50;0.47;;;15.70;70.50;;;;;;4992512;28;20053;-80
2024/02/02 02:15:01;;;;;;;0.60;0.60;;;15.70;70.30;;;;;;5023483;28;20041;-80
2024/02/02 02:17:27;;;;;;;0.35;0.35;;;15.70;70.30;;;;;;4993703;28;20052;-79
2024/02/02 02:19:53;;;;;;;0.50;0.50;;;15.70;70.30;;;;;;5021963;28;20121;-80
2024/02/02 02:22:18;;;;;;;0.50;0.50;;;15.70;70.30;;;;;;5022140;28;20514;-80
2024/02/02 02:24:44;;;;;;;0.60;0.60;;;15.70;70.30;;;;;;5006994;28;20044;-79
2024/02/02 02:27:10;;;;;;;0.40;0.40;;;15.70;70.30;;;;;;5022389;28;20053;-79
2024/02/02 02:29:36;;;;;;;0.50;0.50;;;15.70;70.20;;;;;;4988771;28;20042;-79
2024/02/02 02:32:01;;;;;;;0.50;0.50;;;15.70;70.20;;;;;;5016056;28;20049;-80
2024/02/02 02:34:27;;;;;;;0.30;0.30;;;15.70;70.20;;;;;;5004462;28;20194;-80
2024/02/02 02:36:55;;;;;;;0.38;0.30;;;15.70;70.30;;;;;;5020855;28;20033;-80
2024/02/02 02:39:21;;;;;;;0.55;0.55;;;15.70;70.20;;;;;;5024380;28;20049;-80
2024/02/02 02:41:47;;;;;;;0.98;0.63;;;15.70;70.10;;;;;;5006790;28;20033;-81
2024/02/02 02:44:15;;;;;;;0.55;0.55;;;15.70;70.10;;;;;;5020391;28;20464;-81
2024/02/02 02:46:41;;;;;;;0.40;0.40;;;15.70;70.20;;;;;;5024240;28;20125;-80
2024/02/02 02:49:06;;;;;;;0.43;0.43;;;15.70;70.20;;;;;;5021961;28;20128;-80
2024/02/02 02:51:32;;;;;;;0.40;0.40;;;15.70;70.10;;;;;;5023223;28;20042;-80
2024/02/02 02:53:58;;;;;;;0.70;0.70;;;15.70;70.00;;;;;;5022040;28;20033;-80
2024/02/02 02:56:23;;;;;;;0.40;0.40;;;15.70;70.10;;;;;;5021676;28;20541;-80
2024/02/02 02:58:49;;;;;;;0.50;0.50;;;15.70;70.00;;;;;;5022488;28;20350;-80
2024/02/02 03:01:14;;;;;;;0.35;0.35;;;15.70;70.00;;;;;;5001333;28;20038;-80
2024/02/02 03:03:40;;;;;;;0.60;0.60;;;15.70;70.10;;;;;;5016370;28;20045;-80
2024/02/02 03:06:06;;;;;;;0.77;0.63;;;15.70;70.10;;;;;;5006548;28;20072;-80
2024/02/02 03:08:31;;;;;;;0.70;0.50;;;15.70;70.10;;;;;;5021143;28;20048;-80
2024/02/02 03:10:58;;;;;;;0.38;0.38;;;15.70;70.10;;;;;;4997861;28;20573;-80
2024/02/02 03:13:23;;;;;;;0.57;0.40;;;15.70;70.00;;;;;;5021968;28;20042;-81
2024/02/02 03:15:49;;;;;;;0.55;0.55;;;15.70;70.10;;;;;;5037029;28;20041;-80
2024/02/02 03:18:15;;;;;;;0.80;0.60;;;15.70;70.10;;;;;;4988248;28;20526;-80
2024/02/02 03:20:41;;;;;;;0.50;0.50;;;15.70;70.10;;;;;;5022372;28;20073;-80
2024/02/02 03:23:06;;;;;;;0.50;0.50;;;15.70;70.00;;;;;;5005435;28;20061;-80
2024/02/02 03:25:32;;;;;;;0.52;0.52;;;15.60;70.00;;;;;;5023946;28;20128;-80
2024/02/02 03:27:57;;;;;;;0.40;0.40;;;15.60;70.20;;;;;;5031323;28;20545;-80
2024/02/02 03:30:23;;;;;;;0.38;0.38;;;15.60;70.10;;;;;;5021565;28;20056;-80
2024/02/02 03:32:49;;;;;;;0.70;0.70;;;15.60;69.90;;;;;;5023456;28;20045;-80
2024/02/02 03:35:15;;;;;;;0.40;0.40;;;15.60;70.20;;;;;;5018248;28;20477;-80
2024/02/02 03:37:40;;;;;;;0.30;0.30;;;15.60;70.10;;;;;;5023736;28;20128;-80
2024/02/02 03:40:06;;;;;;;0.50;0.50;;;15.70;70.30;;;;;;5021907;28;20037;-80
2024/02/02 03:42:32;;;;;;;0.50;0.50;;;15.60;70.00;;;;;;4986324;28;20504;-80
2024/02/02 03:44:57;;;;;;;0.60;0.60;;;15.60;70.20;;;;;;5023439;28;20034;-80
2024/02/02 03:47:24;;;;;;;0.40;0.40;;;15.60;69.90;;;;;;5022172;28;20057;-80
2024/02/02 03:49:49;;;;;;;0.38;0.38;;;15.60;70.10;;;;;;5020359;28;20107;-80
2024/02/02 03:52:15;;;;;;;0.50;0.50;;;15.60;70.10;;;;;;4982184;28;20046;-80
2024/02/02 03:54:41;;;;;;;1.60;0.63;;;15.60;70.00;;;;;;5006162;28;20049;-80
2024/02/02 03:57:06;;;;;;;0.40;0.40;;;15.60;69.90;;;;;;5003773;28;20467;-80
2024/02/02 03:59:32;;;;;;;0.50;0.45;;;15.60;69.80;;;;;;4991355;28;20053;-81
2024/02/02 04:01:58;;;;;;;0.75;0.50;;;15.60;70.00;;;;;;4994788;28;20110;-81
2024/02/02 04:04:23;;;;;;;0.47;0.47;;;15.60;70.00;;;;;;4988135;28;20126;-81
2024/02/02 04:06:49;;;;;;;0.45;0.45;;;15.60;69.90;;;;;;5018163;28;20049;-81
2024/02/02 04:09:14;;;;;;;0.50;0.50;;;15.60;70.00;;;;;;4997920;28;20514;-81
2024/02/02 04:11:40;;;;;;;0.50;0.50;;;15.60;70.00;;;;;;5020751;28;20136;-81
2024/02/02 04:14:05;;;;;;;0.40;0.40;;;15.60;70.00;;;;;;5019604;28;20045;-80
2024/02/02 04:16:31;;;;;;;0.63;0.50;;;15.60;69.80;;;;;;5008877;28;20571;-80
2024/02/02 04:18:58;;;;;;;0.80;0.80;;;15.60;69.80;;;;;;5019943;28;20168;-81
2024/02/02 04:21:23;;;;;;;0.50;0.50;;;15.60;69.80;;;;;;5005469;28;20045;-79
2024/02/02 04:23:49;;;;;;;0.55;0.55;;;15.60;69.90;;;;;;5052316;28;20461;-79
2024/02/02 04:26:14;;;;;;;0.47;0.47;;;15.60;69.90;;;;;;5005683;28;20042;-79
2024/02/02 04:28:40;;;;;;;0.50;0.50;;;15.60;69.90;;;;;;5023954;28;20560;-79
2024/02/02 04:31:06;;;;;;;0.63;0.63;;;15.60;69.60;;;;;;5005625;28;20052;-79
2024/02/02 04:33:31;;;;;;;0.60;0.60;;;15.60;69.80;;;;;;4988786;28;20559;-80
2024/02/02 04:35:57;;;;;;;0.60;0.60;;;15.60;69.70;;;;;;4984693;28;20467;-79
2024/02/02 04:38:22;;;;;;;1.20;0.40;;;15.60;69.60;;;;;;5021011;28;20140;-80
2024/02/02 04:40:48;;;;;;;0.50;0.50;;;15.50;69.60;;;;;;5021695;28;20058;-80
2024/02/02 04:43:13;;;;;;;0.70;0.70;;;15.60;69.70;;;;;;5004291;28;20038;-80
2024/02/02 04:45:40;;;;;;;0.70;0.70;;;15.60;69.60;;;;;;5018353;28;20046;-82
2024/02/02 04:48:06;;;;;;;0.40;0.40;;;15.60;69.60;;;;;;5021509;28;20137;-79
2024/02/02 04:50:32;;;;;;;0.38;0.38;;;15.60;69.60;;;;;;5009583;28;20482;-80
2024/02/02 04:52:57;;;;;;;0.60;0.60;;;15.60;69.60;;;;;;5017241;28;20412;-79
2024/02/02 04:55:23;;;;;;;0.40;0.40;;;15.50;69.50;;;;;;5024479;28;20103;-80
2024/02/02 04:57:49;;;;;;;0.40;0.40;;;15.60;69.50;;;;;;5020906;28;20077;-80
2024/02/02 05:00:15;;;;;;;0.45;0.45;;;15.60;69.60;;;;;;5019117;28;20041;-81
2024/02/02 05:02:40;;;;;;;0.60;0.60;;;15.60;69.60;;;;;;5012940;28;20053;-81
2024/02/02 05:05:06;;;;;;;0.57;0.57;;;15.50;69.50;;;;;;5000282;28;20037;-81
2024/02/02 05:07:32;;;;;;;0.60;0.60;;;15.50;69.50;;;;;;4994285;28;20057;-80
2024/02/02 05:09:57;;;;;;;0.43;0.40;;;15.50;69.50;;;;;;5020363;28;20045;-81
2024/02/02 05:12:23;;;;;;;0.60;0.60;;;15.50;69.50;;;;;;5021869;28;20045;-81
2024/02/02 05:14:49;;;;;;;0.50;0.50;;;15.50;69.50;;;;;;5025169;28;20535;-79
2024/02/02 05:17:15;;;;;;;0.40;0.40;;;15.60;69.50;;;;;;5024897;28;20038;-80
2024/02/02 05:19:41;;;;;;;3.25;0.73;;;15.60;69.60;;;;;;5008515;28;20569;-81
2024/02/02 05:22:07;;;;;;;0.60;0.60;;;15.50;69.40;;;;;;5039169;28;20037;-81
2024/02/02 05:24:32;;;;;;;0.98;0.60;;;15.50;69.50;;;;;;5025255;28;20042;-81
2024/02/02 05:26:58;;;;;;;0.55;0.55;;;15.50;70.20;;;;;;5025235;28;20048;-80
2024/02/02 05:29:23;;;;;;;0.55;0.50;;;15.50;69.50;;;;;;5023613;28;20393;-79
2024/02/02 05:31:49;;;;;;;0.98;0.60;;;15.50;70.20;;;;;;5024413;28;20042;-81
2024/02/02 05:34:14;;;;;;;0.70;0.70;;;15.60;69.50;;;;;;5026247;28;20046;-80
2024/02/02 05:36:40;;;;;;;0.70;0.70;;;15.50;69.40;;;;;;5023985;28;20053;-80
2024/02/02 05:39:06;;;;;;;0.65;0.65;;;15.60;69.60;;;;;;4983816;28;20052;-81
2024/02/02 05:41:31;;;;;;;0.63;0.63;;;15.50;69.40;;;;;;5004149;28;20038;-81
2024/02/02 05:43:57;;;;;;;0.50;0.50;;;15.50;69.50;;;;;;5040848;28;20101;-82
2024/02/02 05:46:22;;;;;;;0.60;0.60;;;15.50;69.80;;;;;;5026490;28;20045;-81
2024/02/02 05:48:48;;;;;;;0.70;0.70;;;15.50;69.60;;;;;;4997099;28;20045;-80
2024/02/02 05:51:13;;;;;;;0.68;0.60;;;15.50;69.60;;;;;;5021957;28;20499;-81
2024/02/02 05:53:39;;;;;;;0.50;0.50;;;15.50;69.80;;;;;;5020982;28;20073;-81
2024/02/02 05:56:05;;;;;;;0.50;0.50;;;15.50;69.50;;;;;;5007242;28;20048;-80
2024/02/02 05:58:30;;;;;;;0.60;0.60;;;15.50;69.50;;;;;;5024284;28;20520;-80
2024/02/02 06:00:56;;;;;;;0.70;0.70;;;15.50;69.40;;;;;;5023125;28;20515;-81
2024/02/02 06:03:22;;;;;;;0.50;0.50;;;15.50;69.40;;;;;;4991218;28;20510;-80
2024/02/02 06:05:47;;;;;;;0.60;0.60;;;15.50;69.50;;;;;;5009222;28;20046;-81
2024/02/02 06:08:14;;;;;;;0.70;0.70;;;15.50;69.60;;;;;;5009077;28;20042;-80
2024/02/02 06:10:40;;;;;;;0.70;0.70;;;15.50;69.50;;;;;;5022281;28;20056;-80
2024/02/02 06:13:06;;;;;;;0.80;0.80;;;15.50;69.60;;;;;;5020944;28;20495;-81
2024/02/02 06:15:32;;;;;;;0.75;0.75;;;15.50;69.50;;;;;;5023203;28;20048;-81
2024/02/02 06:17:57;;;;;;;0.52;0.52;;;15.50;69.60;;;;;;4997137;28;20049;-82
2024/02/02 06:20:23;;;;;;;1.15;0.65;;;15.50;69.60;;;;;;5024770;28;20048;-81
2024/02/02 06:22:49;;;;;;;0.50;0.50;;;15.50;69.60;;;;;;5024031;28;20042;-80
2024/02/02 06:25:15;;;;;;;0.55;0.55;;;15.50;69.50;;;;;;5023829;28;20041;-81
2024/02/02 06:27:40;;;;;;;0.63;0.60;;;15.50;69.50;;;;;;5021396;28;20107;-81
2024/02/02 06:30:07;;;;;;;0.60;0.60;;;15.50;69.40;;;;;;5024035;28;20439;-80
2024/02/02 06:32:35;;;;;;;0.80;0.80;;;15.50;69.40;;;;;;5003673;28;20451;-81
2024/02/02 06:35:01;;;;;;;0.68;0.68;;;15.50;69.50;;;;;;4987645;28;20058;-81
2024/02/02 06:37:27;;;;;;;0.90;0.90;;;15.50;69.50;;;;;;5005627;28;20561;-85
2024/02/02 06:39:53;;;;;;;0.68;0.68;;;15.50;69.50;;;;;;5002684;28;20065;-83
2024/02/02 06:42:19;;;;;;;0.52;0.52;;;15.50;69.40;;;;;;5014341;28;20042;-84
2024/02/02 06:44:45;;;;;;;0.68;0.68;;;15.50;69.50;;;;;;5023020;28;20045;-84
2024/02/02 06:47:10;;;;;;;0.60;0.60;;;15.50;69.50;;;;;;4997744;28;20064;-87
2024/02/02 06:49:36;;;;;;;0.65;0.65;;;15.50;69.40;;;;;;4999774;28;20068;-83
2024/02/02 06:52:02;;;;;;;0.70;0.70;;;15.50;69.50;;;;;;5021772;28;20052;-86
2024/02/02 06:54:27;;;;;;;0.55;0.55;;;15.50;69.40;;;;;;5021975;28;20062;-86
2024/02/02 06:56:53;;;;;;;0.68;0.68;;;15.50;69.50;;;;;;5021072;28;20044;-88
2024/02/02 06:59:18;;;;;;;0.70;0.70;;;15.40;69.40;;;;;;5022903;28;20275;-88
2024/02/02 07:01:44;;;;;;;0.50;0.50;;;15.50;69.60;;;;;;5023336;28;20053;-85
2024/02/02 07:04:13;;;;;;;0.63;0.63;;;15.50;69.50;;;;;;5024569;28;20450;-85
2024/02/02 07:06:39;;;;;;;0.50;0.50;;;15.40;69.40;;;;;;5022624;28;20045;-85
2024/02/02 07:09:28;;;;;;;0.57;0.57;;;15.50;69.40;;;;;;5004816;28;20052;-86
2024/02/02 07:12:00;;;;;;;0.70;0.70;;;15.50;69.50;;;;;;5022420;28;20621;-85
2024/02/02 07:14:44;;;;;;;0.88;0.45;;;15.40;69.50;;;;;;5021726;28;20096;-87
2024/02/02 07:17:31;;;;;;;;;;;15.50;69.70;;;;;;5021765;28;20029;-85
2024/02/02 07:19:57;;;;;;;0.50;0.50;;;15.50;69.40;;;;;;5019561;28;19921;-85
2024/02/02 07:22:32;;;;;;;0.60;0.60;;;15.50;69.60;;;;;;5023513;28;20049;-85
2024/02/02 07:24:57;;;;;;;0.77;0.77;;;15.40;69.90;;;;;;5023681;28;20043;-85
2024/02/02 07:27:38;;;;;;;0.52;0.52;;;15.50;70.30;;;;;;5018967;28;20041;-83
2024/02/02 07:30:11;;;;;;;1.05;0.68;;;15.50;69.80;;;;;;5020874;28;20507;-85
2024/02/02 07:32:37;;;;;;;0.45;0.45;;;15.50;71.00;;;;;;5017723;28;20447;-84
2024/02/02 07:35:02;;;;;;;0.70;0.70;;;15.50;72.10;;;;;;5002138;28;20049;-87
2024/02/02 07:37:31;;;;;;;2.33;0.50;;;15.50;73.60;;;;;;4991493;28;20038;-89
2024/02/02 07:39:58;;;;;;;0.60;0.60;;;15.50;75.50;;;;;;5020856;28;20142;-88
2024/02/02 07:42:23;;;;;;;0.55;0.50;;;15.50;75.50;;;;;;5021163;28;20037;-88
2024/02/02 07:44:49;;;;;;;0.38;0.38;;;15.40;75.30;;;;;;5006220;28;20103;-89
2024/02/02 07:47:15;;;;;;;0.50;0.50;;;15.40;75.90;;;;;;4998142;28;20049;-90
2024/02/02 07:49:40;;;;;;;0.50;0.50;;;15.40;75.70;;;;;;5025228;28;20064;-87
2024/02/02 07:52:06;;;;;;;0.60;0.60;;;15.40;78.10;;;;;;5021549;28;20053;-87
2024/02/02 07:54:31;;;;;;;0.50;0.50;;;15.40;80.40;;;;;;5021889;28;20073;-86
2024/02/02 07:56:57;;;;;;;0.73;0.55;;;15.40;75.40;;;;;;5022498;28;20403;-88
2024/02/02 07:59:23;;;;;;;0.60;0.60;;;15.30;75.80;;;;;;5021587;28;20044;-87
2024/02/02 08:01:48;;;;;;;0.65;0.50;;;15.30;74.70;;;;;;5023018;28;20037;-87
2024/02/02 08:04:14;;;;;;;0.65;0.65;;;15.30;75.50;;;;;;5024458;28;20064;-87
2024/02/02 08:06:40;;;;;;;1.20;0.50;;;15.30;76.70;;;;;;5020183;28;20155;-87
2024/02/02 08:09:09;;;;;;;0.57;0.50;;;15.30;76.20;;;;;;5020599;28;20053;-88
2024/02/02 08:11:35;;;;;;;0.75;0.60;;;15.30;76.30;;;;;;5022480;28;20466;-87
2024/02/02 08:14:01;;;;;;;0.55;0.55;;;15.30;76.50;;;;;;5022882;28;20512;-87
2024/02/02 08:16:27;;;;;;;0.63;0.60;;;15.30;75.80;;;;;;5024967;28;20498;-88
2024/02/02 08:18:53;;;;;;;0.40;0.40;;;15.30;76.20;;;;;;5021531;28;20479;-88
2024/02/02 08:21:19;;;;;;;0.57;0.40;;;15.30;76.30;;;;;;5019739;28;20100;-87
2024/02/02 08:23:44;;;;;;;0.45;0.45;;;15.30;77.40;;;;;;4991544;28;20978;-87
2024/02/02 08:26:10;;;;;;;1.08;0.60;;;15.30;77.50;;;;;;4999689;28;20539;-87
2024/02/02 08:28:38;;;;;;;0.68;0.50;;;15.30;76.80;;;;;;5005457;28;20045;-88
2024/02/02 08:31:04;;;;;;;0.60;0.40;;;15.30;76.70;;;;;;5018576;28;20063;-88
2024/02/02 08:33:30;;;;;;;0.40;0.40;;;15.20;77.00;;;;;;5019243;28;20132;-88
2024/02/02 08:35:55;;;;;;;0.65;0.45;;;15.30;76.20;;;;;;5022263;28;20048;-88
2024/02/02 08:38:21;;;;;;;0.38;0.38;;;15.20;76.50;;;;;;5023091;28;20107;-87
2024/02/02 08:40:48;;;;;;;1.48;0.40;;;15.20;77.10;;;;;;5024816;28;20041;-88
2024/02/02 08:43:20;;;;;;;0.30;0.30;;;15.30;76.80;;;;;;5027581;28;20056;-87
2024/02/02 08:46:06;;;;;;;0.63;0.40;;;15.20;76.70;;;;;;5027253;28;20052;-87
2024/02/02 08:48:34;;;;;;;1.73;0.43;;;15.30;77.50;;;;;;5005303;28;20567;-88
2024/02/02 08:51:00;;;;;;;0.50;0.50;;;15.20;77.60;;;;;;5014392;28;20038;-88
2024/02/02 08:53:26;;;;;;;0.60;0.60;;;15.20;76.90;;;;;;5015956;28;20419;-88
2024/02/02 08:55:59;;;;;;;0.45;0.45;;;15.20;77.00;;;;;;5027666;28;20068;-88
2024/02/02 08:58:28;;;;;;;0.40;0.40;;;15.20;78.80;;;;;;5028426;28;20049;-88
2024/02/02 09:00:53;;;;;;;1.45;0.52;;;15.20;76.80;;;;;;5023842;28;20563;-88
2024/02/02 09:03:26;;;;;;;0.57;0.50;;;15.20;78.00;;;;;;5023801;28;20190;-87
2024/02/02 09:05:58;;;;;;;0.45;0.40;;;15.20;77.70;;;;;;5025733;28;20079;-88
2024/02/02 09:08:41;;;;;;;0.85;0.40;;;15.20;76.80;;;;;;5023876;28;20124;-88
2024/02/02 09:11:17;;;;;;;0.40;0.40;;;15.30;78.30;;;;;;5023366;28;20053;-88
2024/02/02 09:13:44;;;;;;;0.45;0.30;;;15.20;77.90;;;;;;5019479;28;20777;-88
2024/02/02 09:16:13;;;;;;;0.30;0.30;;;15.30;77.60;;;;;;5014515;28;20103;-89
2024/02/02 09:18:40;;;;;;;0.40;0.40;;;15.20;77.50;;;;;;5013471;28;20053;-88
2024/02/02 09:21:07;;;;;;;0.40;0.40;;;15.30;77.30;;;;;;5011881;28;20045;-88
2024/02/02 09:23:33;;;;;;;0.32;0.30;;;15.20;76.80;;;;;;5026241;28;20050;-88
2024/02/02 09:26:32;;;;;;;1.27;0.60;;;15.20;77.60;;;;;;5025005;28;20120;-88
2024/02/02 09:29:00;;;;;;;0.60;0.60;;;15.20;77.70;;;;;;5022743;28;20041;-88
2024/02/02 09:31:25;;;;;;;0.93;0.30;;;15.20;77.40;;;;;;4995008;28;20145;-88
2024/02/02 09:33:52;;;;;;;0.60;0.50;;;15.20;77.10;;;;;;4999647;28;20164;-88
2024/02/02 09:36:20;;;;;;;0.32;0.32;;;15.20;77.10;;;;;;5019047;28;20041;-87
2024/02/02 09:38:57;;;;;;;0.45;0.45;;;15.20;77.60;;;;;;5026136;28;20408;-88
2024/02/02 09:41:48;;;;;;;0.45;0.30;;;15.20;77.10;;;;;;5023641;28;20045;-88
2024/02/02 09:44:16;;;;;;;0.40;0.40;;;15.30;78.10;;;;;;5000291;28;20034;-85
2024/02/02 09:46:45;;;;;;;0.30;0.30;;;15.20;77.10;;;;;;5027175;28;20056;-87
2024/02/02 09:49:26;;;;;;;0.80;0.45;;;15.20;77.20;;;;;;5010164;28;20191;-88
2024/02/02 09:52:32;;;;;;;0.35;0.35;;;15.30;77.00;;;;;;5022704;28;20037;-87
2024/02/02 09:55:22;;;;;;;0.40;0.40;;;15.30;77.30;;;;;;4974914;28;20045;-88
2024/02/02 09:58:07;;;;;;;0.30;0.30;;;15.30;77.70;;;;;;5023160;28;20068;-88
2024/02/02 10:00:51;;;;;;;0.32;0.32;;;15.30;77.20;;;;;;5046603;28;20045;-88
2024/02/02 10:03:50;;;;;;;0.40;0.30;;;15.30;77.10;;;;;;5024696;28;20033;-88
2024/02/02 10:06:40;;;;;;;0.40;0.40;;;15.30;77.50;;;;;;5012136;28;20040;-87
2024/02/02 10:09:12;;;;;;;1.75;0.30;;;15.30;77.10;;;;;;5024265;28;20534;-88
2024/02/02 10:11:49;;;;;;;0.40;0.40;;;15.30;76.90;;;;;;5025575;28;20500;-88
2024/02/02 10:14:31;;;;;;;0.50;0.40;;;15.30;77.30;;;;;;5025597;28;20064;-86
2024/02/02 10:17:21;;;;;;;0.68;0.45;;;15.30;76.80;;;;;;5054612;28;20044;-88
2024/02/02 10:20:34;;;;;;;0.40;0.40;;;15.30;77.50;;;;;;5026265;28;20034;-88
2024/02/02 10:23:12;;;;;;;0.40;0.40;;;15.30;77.30;;;;;;5014963;28;20045;-88
2024/02/02 10:25:58;;;;;;;0.20;0.20;;;15.30;77.00;;;;;;5024597;28;20066;-88
2024/02/02 10:28:52;;;;;;;0.40;0.40;;;15.30;76.90;;;;;;5055008;28;20181;-88
2024/02/02 10:31:44;;;;;;;2.50;0.60;;;15.30;77.10;;;;;;5024171;28;22019;-88
2024/02/02 10:34:26;;;;;;;0.35;0.35;;;15.30;76.80;;;;;;5016839;28;20038;-88
2024/02/02 10:37:08;;;;;;;1.73;0.40;;;15.30;76.70;;;;;;5023536;28;20116;-88
2024/02/02 10:39:45;;;;;;;0.30;0.30;;;15.30;76.90;;;;;;5023056;28;20032;-88
2024/02/02 10:42:20;;;;;;;0.63;0.55;;;15.30;77.10;;;;;;5022013;28;20049;-88
2024/02/02 10:44:57;;;;;;;0.40;0.40;;;15.30;76.90;;;;;;5022242;28;20423;-88
2024/02/02 10:47:23;;;;;;;0.40;0.40;;;15.30;76.60;;;;;;5023412;28;21166;-88
2024/02/02 10:50:21;;;;;;;0.60;0.40;;;15.30;76.70;;;;;;5025756;28;20037;-89
2024/02/02 10:52:49;;;;;;;0.40;0.40;;;15.30;76.70;;;;;;5013590;28;20029;-88
2024/02/02 10:55:29;;;;;;;0.40;0.40;;;15.30;76.70;;;;;;5024596;28;20068;-89
2024/02/02 10:58:29;;;;;;;0.30;0.30;;;15.30;76.80;;;;;;5021901;28;20045;-88
2024/02/02 11:01:18;;;;;;;0.40;0.40;;;15.30;77.10;;;;;;5007387;28;20037;-87
2024/02/02 11:03:54;;;;;;;0.43;0.43;;;15.40;76.60;;;;;;5012532;28;20507;-89
2024/02/02 11:06:46;;;;;;;0.35;0.35;;;15.30;76.70;;;;;;5022957;28;20088;-87
2024/02/02 11:09:32;;;;;;;0.35;0.35;;;15.40;76.80;;;;;;5014195;28;20056;-88
2024/02/02 11:12:15;;;;;;;0.40;0.40;;;15.40;76.50;;;;;;5021459;28;20056;-89
2024/02/02 11:15:12;;;;;;;0.45;0.45;;;15.40;77.00;;;;;;5005841;28;20499;-88
2024/02/02 11:17:58;;;;;;;0.40;0.40;;;15.40;77.00;;;;;;5022512;28;20046;-88
2024/02/02 11:20:34;;;;;;;0.40;0.40;;;15.30;76.80;;;;;;5022811;28;20191;-88
2024/02/02 11:23:11;;;;;;;0.20;0.20;;;15.40;77.10;;;;;;5023566;28;20038;-88
2024/02/02 11:25:44;;;;;;;0.40;0.40;;;15.30;77.00;;;;;;5024217;28;20061;-88
2024/02/02 11:28:16;;;;;;;0.30;0.30;;;15.30;77.10;;;;;;5023617;28;20034;-88
2024/02/02 11:30:46;;;;;;;0.30;0.30;;;15.30;76.90;;;;;;5021411;28;20389;-88
2024/02/02 11:33:22;;;;;;;0.40;0.40;;;15.40;77.30;;;;;;5024803;28;20119;-88
2024/02/02 11:36:02;;;;;;;0.30;0.30;;;15.30;77.10;;;;;;5020053;28;20041;-88
2024/02/02 11:38:56;;;;;;;0.40;0.40;;;15.40;77.00;;;;;;5022532;28;20033;-88
2024/02/02 11:41:23;;;;;;;0.43;0.43;;;15.40;77.30;;;;;;5023247;28;20104;-87
2024/02/02 11:43:49;;;;;;;0.38;0.30;;;15.30;77.10;;;;;;5023606;28;20135;-88
2024/02/02 11:46:15;;;;;;;0.40;0.40;;;15.40;77.30;;;;;;5024597;28;20037;-88
2024/02/02 11:48:43;;;;;;;0.30;0.30;;;15.40;77.60;;;;;;4642453;28;10000447;-86
2024/02/02 11:51:09;;;;;;;0.65;0.38;;;15.40;76.80;;;;;;5051102;28;20037;-86
2024/02/02 11:54:04;;;;;;;0.40;0.40;;;15.40;76.60;;;;;;5001116;28;20049;-86
2024/02/02 11:56:32;;;;;;;0.47;0.47;;;15.40;76.70;;;;;;5046129;28;20049;-86
2024/02/02 11:59:12;;;;;;;0.45;0.45;;;15.40;76.70;;;;;;5018939;28;20055;-87
2024/02/02 12:02:28;;;;;;;0.43;0.40;;;15.40;76.50;;;;;;5018291;28;20129;-88
2024/02/02 12:05:01;;;;;;;0.40;0.40;;;15.40;76.30;;;;;;4963063;28;20053;-86
2024/02/02 12:07:36;;;;;;;0.40;0.40;;;15.40;76.20;;;;;;4944209;28;20561;-87
2024/02/02 12:10:03;;;;;;;0.43;0.43;;;15.40;76.60;;;;;;4958081;28;20183;-87
2024/02/02 12:12:31;;;;;;;0.30;0.30;;;15.40;76.50;;;;;;4959691;28;20057;-86
2024/02/02 12:14:57;;;;;;;0.40;0.40;;;15.50;76.30;;;;;;4972173;28;20108;-88
2024/02/02 12:17:23;;;;;;;0.63;0.40;;;15.50;76.20;;;;;;4940908;28;20066;-87
2024/02/02 12:19:48;;;;;;;0.43;0.40;;;15.50;76.10;;;;;;4967170;28;20050;-87
2024/02/02 12:22:14;;;;;;;1.88;0.47;;;15.50;75.80;;;;;;4961512;28;20050;-87
2024/02/02 12:24:40;;;;;;;0.32;0.32;;;15.50;75.70;;;;;;4960601;28;20051;-87
2024/02/02 12:27:08;;;;;;;0.30;0.30;;;15.50;75.70;;;;;;4945443;28;20535;-88
2024/02/02 12:29:35;;;;;;;0.30;0.30;;;15.50;75.70;;;;;;4965202;28;20049;-88
2024/02/02 12:32:00;;;;;;;0.55;0.30;;;15.50;75.10;;;;;;4959700;28;20074;-88
2024/02/02 12:34:26;;;;;;;0.40;0.40;;;15.50;75.30;;;;;;4967658;28;20488;-88
2024/02/02 12:36:51;;;;;;;0.30;0.30;;;15.50;75.50;;;;;;4981031;28;20111;-88
2024/02/02 12:39:17;;;;;;;0.30;0.30;;;15.50;76.00;;;;;;5006053;28;20538;-87
2024/02/02 12:41:43;;;;;;;0.30;0.30;;;15.50;75.90;;;;;;5023431;28;20080;-88
2024/02/02 12:44:08;;;;;;;0.38;0.28;;;15.50;75.80;;;;;;5006662;28;20104;-88
2024/02/02 12:46:47;;;;;;;1.02;0.40;;;15.50;76.00;;;;;;5024786;28;20108;-88
2024/02/02 12:49:12;;;;;;;0.20;0.20;;;15.50;75.90;;;;;;5025583;28;20511;-88
2024/02/02 12:51:38;;;;;;;0.40;0.40;;;15.50;75.80;;;;;;5004641;28;20052;-87
2024/02/02 12:54:04;;;;;;;0.77;0.40;;;15.50;76.70;;;;;;5017040;28;20049;-84
2024/02/02 12:56:30;;;;;;;0.57;0.40;;;15.50;76.10;;;;;;5003177;28;20048;-83
2024/02/02 12:58:55;;;;;;;0.30;0.30;;;15.50;76.20;;;;;;5006478;28;20051;-83